Annville, KY

7:10 AM EDT on September 19, 2014 (GMT -0400)
Southern McKee | Change Station
CLOSE
Current Station
Personal Weather Station
Location: McKee, KY
Elevation: 1138 ft
Nearby Weather Stations

Elev 1138 ft 37.36 °N, 83.94 °W | Updated 3 seconds ago

Clear
Clear
47.4 °F
Feels Like 47 °F
N
0.0
Wind Variable Wind from West
Gusts 0.0 mph

Today
High -- | Low -- °F
--% Chance of Precip.
Yesterday
High -- | Low -- °F
Precip. -- in
7:21 AM 7:37 PM
Waning Crescent, 20% visible
Pressure 30.10 in
Visibility 8.0 miles
Clouds Clear
Windchill 47 °F
Dew Point 45 °F
Humidity 91%
Rainfall 0.00 in
Snow Depth Not available.
UV 0 out of 12
Pollen 5.40 out of 12
Air Quality Not available.
Flu Activity Not available.
METAR KLOZ 191053Z AUTO 02004KT 8SM CLR 13/11 A3012 RMK AO2 SLP192 T01280106

More Conditions Fewer Conditions

Pressure 30.10 in
Visibility 8.0 miles
Clouds Clear
Windchill 47 °F
Dew Point 45 °F
Humidity 91%
Rainfall 0.00 in
Snow Depth Not available.
UV 0 out of 12
Pollen 5.40 out of 12
Air Quality Not available.
Flu Activity Not available.
METAR KLOZ 191053Z AUTO 02004KT 8SM CLR 13/11 A3012 RMK AO2 SLP192 T01280106

More Conditions Fewer Conditions

10-Day Weather Forecast

Almanac

Astronomy

Sep. 19, 2014 Rise Set
Actual Time 7:21 AM EDT 7:37 PM EDT
Civil Twilight 6:55 AM EDT 8:03 PM EDT
Nautical Twilight 6:24 AM EDT 8:33 PM EDT
Astronomical Twilight 5:53 AM EDT 9:04 PM EDT
Moon 3:09 AM EDT 5:01 PM EDT
Length of Visible Light 13h 08m
Length of Day
12h 16m
Tomorrow will be 2m 22s shorter.
Waning Crescent, 20% of the Moon is Illuminated
Today
Waning Crescent
Sep 24
New
Oct 1
First Quarter
Oct 8
Full
Oct 15
Last Quarter

Today's Extremes

State Highs State Lows

Community

WunderPhotos

Upload Photos

1,754,592 photos uploaded!

WunderBlogs® & News

Nearby

Snow Depth

Station Depth Elevation
No new snow has been reported.

Earthquake Activity

City Distance Mag. Time & Date
No recent earthquake activity has been reported nearby.
Minimum magnitude displayed is 2.5.

Coastal Water Temperatures

Place Temperature
No Stations Reporting

Nearby Weather Stations